sensor_id;sensor_type;location;lat;lon;timestamp;P1;durP1;ratioP1;P2;durP2;ratioP2
5279;SDS011;2663;53.588;10.010;2023-05-24T00:02:06;32.53;;;6.57;;
5279;SDS011;2663;53.588;10.010;2023-05-24T00:04:33;31.67;;;6.30;;
5279;SDS011;2663;53.588;10.010;2023-05-24T00:07:00;50.33;;;6.60;;
5279;SDS011;2663;53.588;10.010;2023-05-24T00:09:30;34.80;;;5.20;;
5279;SDS011;2663;53.588;10.010;2023-05-24T00:11:57;36.53;;;6.87;;
5279;SDS011;2663;53.588;10.010;2023-05-24T00:14:24;32.10;;;5.30;;
5279;SDS011;2663;53.588;10.010;2023-05-24T00:16:51;29.60;;;6.80;;
5279;SDS011;2663;53.588;10.010;2023-05-24T00:19:17;46.33;;;6.77;;
5279;SDS011;2663;53.588;10.010;2023-05-24T00:21:49;26.17;;;5.20;;
5279;SDS011;2663;53.588;10.010;2023-05-24T00:24:16;23.87;;;4.40;;
5279;SDS011;2663;53.588;10.010;2023-05-24T00:26:42;30.17;;;6.20;;
5279;SDS011;2663;53.588;10.010;2023-05-24T00:29:10;32.10;;;5.00;;
5279;SDS011;2663;53.588;10.010;2023-05-24T00:31:37;29.70;;;6.47;;
5279;SDS011;2663;53.588;10.010;2023-05-24T00:34:04;38.60;;;6.50;;
5279;SDS011;2663;53.588;10.010;2023-05-24T00:36:30;30.77;;;5.20;;
5279;SDS011;2663;53.588;10.010;2023-05-24T00:38:58;27.90;;;5.30;;
5279;SDS011;2663;53.588;10.010;2023-05-24T00:41:25;36.80;;;6.33;;
5279;SDS011;2663;53.588;10.010;2023-05-24T00:43:52;27.10;;;5.20;;
5279;SDS011;2663;53.588;10.010;2023-05-24T00:46:28;32.60;;;3.93;;
5279;SDS011;2663;53.588;10.010;2023-05-24T00:48:57;38.63;;;6.07;;
5279;SDS011;2663;53.588;10.010;2023-05-24T00:51:26;37.23;;;6.20;;
5279;SDS011;2663;53.588;10.010;2023-05-24T00:53:54;24.67;;;5.23;;
5279;SDS011;2663;53.588;10.010;2023-05-24T00:56:21;31.50;;;4.70;;
5279;SDS011;2663;53.588;10.010;2023-05-24T00:58:49;29.30;;;6.47;;
5279;SDS011;2663;53.588;10.010;2023-05-24T01:01:19;33.90;;;6.53;;
5279;SDS011;2663;53.588;10.010;2023-05-24T01:03:47;51.10;;;7.00;;
5279;SDS011;2663;53.588;10.010;2023-05-24T01:06:13;37.10;;;6.07;;
5279;SDS011;2663;53.588;10.010;2023-05-24T01:08:42;27.10;;;6.10;;
5279;SDS011;2663;53.588;10.010;2023-05-24T01:14:33;27.97;;;5.10;;
5279;SDS011;2663;53.588;10.010;2023-05-24T01:17:20;34.93;;;6.00;;
5279;SDS011;2663;53.588;10.010;2023-05-24T01:20:07;22.13;;;4.77;;
5279;SDS011;2663;53.588;10.010;2023-05-24T01:22:37;36.40;;;7.20;;
5279;SDS011;2663;53.588;10.010;2023-05-24T01:25:22;31.57;;;6.17;;
5279;SDS011;2663;53.588;10.010;2023-05-24T01:28:11;48.80;;;8.50;;
5279;SDS011;2663;53.588;10.010;2023-05-24T01:30:39;36.00;;;6.20;;
5279;SDS011;2663;53.588;10.010;2023-05-24T01:33:07;44.13;;;6.17;;
5279;SDS011;2663;53.588;10.010;2023-05-24T01:35:34;27.30;;;5.90;;
5279;SDS011;2663;53.588;10.010;2023-05-24T01:38:05;39.93;;;6.20;;
5279;SDS011;2663;53.588;10.010;2023-05-24T01:40:33;41.83;;;7.23;;
5279;SDS011;2663;53.588;10.010;2023-05-24T01:48:51;37.13;;;6.17;;
5279;SDS011;2663;53.588;10.010;2023-05-24T01:51:26;34.40;;;5.13;;
5279;SDS011;2663;53.588;10.010;2023-05-24T01:53:59;31.37;;;7.00;;
5279;SDS011;2663;53.588;10.010;2023-05-24T01:56:27;38.50;;;6.57;;
5279;SDS011;2663;53.588;10.010;2023-05-24T01:58:55;26.53;;;5.60;;
5279;SDS011;2663;53.588;10.010;2023-05-24T02:01:25;33.33;;;5.70;;
5279;SDS011;2663;53.588;10.010;2023-05-24T02:03:52;44.63;;;8.40;;
5279;SDS011;2663;53.588;10.010;2023-05-24T02:06:19;33.63;;;6.17;;
5279;SDS011;2663;53.588;10.010;2023-05-24T02:08:46;37.03;;;6.30;;
5279;SDS011;2663;53.588;10.010;2023-05-24T02:11:13;43.67;;;5.47;;
5279;SDS011;2663;53.588;10.010;2023-05-24T02:13:39;35.67;;;7.17;;
5279;SDS011;2663;53.588;10.010;2023-05-24T02:16:06;39.07;;;5.83;;
5279;SDS011;2663;53.588;10.010;2023-05-24T02:18:33;42.70;;;5.50;;
5279;SDS011;2663;53.588;10.010;2023-05-24T02:21:00;31.77;;;6.10;;
5279;SDS011;2663;53.588;10.010;2023-05-24T02:23:27;26.93;;;6.27;;
5279;SDS011;2663;53.588;10.010;2023-05-24T02:25:54;39.00;;;6.57;;
5279;SDS011;2663;53.588;10.010;2023-05-24T02:28:21;34.57;;;5.90;;
5279;SDS011;2663;53.588;10.010;2023-05-24T02:30:48;50.30;;;7.50;;
5279;SDS011;2663;53.588;10.010;2023-05-24T02:33:15;36.43;;;6.10;;
5279;SDS011;2663;53.588;10.010;2023-05-24T02:35:42;26.00;;;5.30;;
5279;SDS011;2663;53.588;10.010;2023-05-24T02:38:08;27.30;;;6.10;;
5279;SDS011;2663;53.588;10.010;2023-05-24T02:40:35;27.10;;;4.97;;
5279;SDS011;2663;53.588;10.010;2023-05-24T02:43:02;40.63;;;6.80;;
5279;SDS011;2663;53.588;10.010;2023-05-24T02:45:28;39.77;;;5.10;;
5279;SDS011;2663;53.588;10.010;2023-05-24T02:47:55;31.73;;;5.37;;
5279;SDS011;2663;53.588;10.010;2023-05-24T02:50:22;39.33;;;6.80;;
5279;SDS011;2663;53.588;10.010;2023-05-24T02:52:49;24.73;;;4.47;;
5279;SDS011;2663;53.588;10.010;2023-05-24T02:55:16;45.50;;;6.27;;
5279;SDS011;2663;53.588;10.010;2023-05-24T02:57:43;34.97;;;5.87;;
5279;SDS011;2663;53.588;10.010;2023-05-24T03:00:10;37.77;;;5.23;;
5279;SDS011;2663;53.588;10.010;2023-05-24T03:02:37;32.13;;;6.23;;
5279;SDS011;2663;53.588;10.010;2023-05-24T03:05:06;26.27;;;5.23;;
5279;SDS011;2663;53.588;10.010;2023-05-24T03:07:33;37.27;;;5.90;;
5279;SDS011;2663;53.588;10.010;2023-05-24T03:10:00;29.20;;;5.40;;
5279;SDS011;2663;53.588;10.010;2023-05-24T03:12:26;47.43;;;5.23;;
5279;SDS011;2663;53.588;10.010;2023-05-24T03:14:53;35.77;;;6.10;;
5279;SDS011;2663;53.588;10.010;2023-05-24T03:17:20;38.47;;;6.10;;
5279;SDS011;2663;53.588;10.010;2023-05-24T03:19:46;43.37;;;5.93;;
5279;SDS011;2663;53.588;10.010;2023-05-24T03:22:13;37.77;;;5.93;;
5279;SDS011;2663;53.588;10.010;2023-05-24T03:24:41;37.83;;;4.80;;
5279;SDS011;2663;53.588;10.010;2023-05-24T03:27:08;41.07;;;5.63;;
5279;SDS011;2663;53.588;10.010;2023-05-24T03:29:35;28.97;;;5.40;;
5279;SDS011;2663;53.588;10.010;2023-05-24T03:32:02;28.63;;;6.20;;
5279;SDS011;2663;53.588;10.010;2023-05-24T03:34:29;33.20;;;5.60;;
5279;SDS011;2663;53.588;10.010;2023-05-24T03:36:56;24.10;;;5.40;;
5279;SDS011;2663;53.588;10.010;2023-05-24T03:39:23;34.00;;;5.37;;
5279;SDS011;2663;53.588;10.010;2023-05-24T03:41:49;58.57;;;7.40;;
5279;SDS011;2663;53.588;10.010;2023-05-24T03:44:16;29.53;;;4.73;;
5279;SDS011;2663;53.588;10.010;2023-05-24T03:46:43;22.70;;;5.57;;
5279;SDS011;2663;53.588;10.010;2023-05-24T03:49:10;34.37;;;7.17;;
5279;SDS011;2663;53.588;10.010;2023-05-24T03:51:36;33.70;;;5.63;;
5279;SDS011;2663;53.588;10.010;2023-05-24T03:54:03;28.73;;;5.83;;
5279;SDS011;2663;53.588;10.010;2023-05-24T03:56:30;30.43;;;5.77;;
5279;SDS011;2663;53.588;10.010;2023-05-24T03:58:56;44.67;;;6.70;;
5279;SDS011;2663;53.588;10.010;2023-05-24T04:01:25;42.53;;;6.03;;
5279;SDS011;2663;53.588;10.010;2023-05-24T04:03:59;38.53;;;6.03;;
5279;SDS011;2663;53.588;10.010;2023-05-24T04:06:27;54.90;;;7.63;;
5279;SDS011;2663;53.588;10.010;2023-05-24T04:08:55;29.10;;;6.13;;
5279;SDS011;2663;53.588;10.010;2023-05-24T04:11:22;39.63;;;6.17;;
5279;SDS011;2663;53.588;10.010;2023-05-24T04:13:53;31.43;;;6.03;;
5279;SDS011;2663;53.588;10.010;2023-05-24T04:16:21;27.00;;;5.47;;
5279;SDS011;2663;53.588;10.010;2023-05-24T04:18:53;33.60;;;5.97;;
5279;SDS011;2663;53.588;10.010;2023-05-24T04:21:21;28.37;;;5.17;;
5279;SDS011;2663;53.588;10.010;2023-05-24T04:23:48;49.50;;;7.60;;
5279;SDS011;2663;53.588;10.010;2023-05-24T04:26:14;32.07;;;5.00;;
5279;SDS011;2663;53.588;10.010;2023-05-24T04:28:42;28.80;;;6.87;;
5279;SDS011;2663;53.588;10.010;2023-05-24T04:31:10;29.57;;;6.70;;
5279;SDS011;2663;53.588;10.010;2023-05-24T04:33:37;24.37;;;4.53;;
5279;SDS011;2663;53.588;10.010;2023-05-24T04:36:04;26.93;;;7.10;;
5279;SDS011;2663;53.588;10.010;2023-05-24T04:38:33;35.63;;;7.03;;
5279;SDS011;2663;53.588;10.010;2023-05-24T04:41:01;44.10;;;5.90;;
5279;SDS011;2663;53.588;10.010;2023-05-24T04:43:28;41.20;;;8.33;;
5279;SDS011;2663;53.588;10.010;2023-05-24T04:45:54;41.43;;;6.47;;
5279;SDS011;2663;53.588;10.010;2023-05-24T04:48:21;53.03;;;6.93;;
5279;SDS011;2663;53.588;10.010;2023-05-24T04:50:55;38.43;;;7.27;;
5279;SDS011;2663;53.588;10.010;2023-05-24T04:53:25;43.17;;;6.50;;
5279;SDS011;2663;53.588;10.010;2023-05-24T04:55:52;23.17;;;5.97;;
5279;SDS011;2663;53.588;10.010;2023-05-24T04:58:19;31.83;;;6.00;;
5279;SDS011;2663;53.588;10.010;2023-05-24T05:00:46;25.57;;;7.30;;
5279;SDS011;2663;53.588;10.010;2023-05-24T05:03:12;36.60;;;7.50;;
5279;SDS011;2663;53.588;10.010;2023-05-24T05:05:39;36.30;;;7.00;;
5279;SDS011;2663;53.588;10.010;2023-05-24T05:08:06;37.90;;;6.90;;
5279;SDS011;2663;53.588;10.010;2023-05-24T05:10:33;29.20;;;6.13;;
5279;SDS011;2663;53.588;10.010;2023-05-24T05:13:01;41.03;;;7.00;;
5279;SDS011;2663;53.588;10.010;2023-05-24T05:15:27;28.57;;;6.73;;
5279;SDS011;2663;53.588;10.010;2023-05-24T05:17:54;37.70;;;7.10;;
5279;SDS011;2663;53.588;10.010;2023-05-24T05:20:21;36.47;;;7.57;;
5279;SDS011;2663;53.588;10.010;2023-05-24T05:22:48;30.00;;;6.03;;
5279;SDS011;2663;53.588;10.010;2023-05-24T05:25:15;35.47;;;6.80;;
5279;SDS011;2663;53.588;10.010;2023-05-24T05:27:42;41.43;;;7.03;;
5279;SDS011;2663;53.588;10.010;2023-05-24T05:30:09;22.97;;;6.40;;
5279;SDS011;2663;53.588;10.010;2023-05-24T05:32:36;29.80;;;6.83;;
5279;SDS011;2663;53.588;10.010;2023-05-24T05:35:03;30.90;;;7.70;;
5279;SDS011;2663;53.588;10.010;2023-05-24T05:37:30;32.80;;;8.33;;
5279;SDS011;2663;53.588;10.010;2023-05-24T05:39:57;39.80;;;9.10;;
5279;SDS011;2663;53.588;10.010;2023-05-24T05:42:24;39.23;;;8.33;;
5279;SDS011;2663;53.588;10.010;2023-05-24T05:44:50;30.60;;;8.20;;
5279;SDS011;2663;53.588;10.010;2023-05-24T05:47:17;44.10;;;8.23;;
5279;SDS011;2663;53.588;10.010;2023-05-24T05:49:44;33.10;;;7.53;;
5279;SDS011;2663;53.588;10.010;2023-05-24T05:52:11;52.20;;;9.13;;
5279;SDS011;2663;53.588;10.010;2023-05-24T05:54:38;50.17;;;8.30;;
5279;SDS011;2663;53.588;10.010;2023-05-24T05:57:04;25.17;;;7.40;;
5279;SDS011;2663;53.588;10.010;2023-05-24T05:59:33;41.77;;;7.83;;
5279;SDS011;2663;53.588;10.010;2023-05-24T06:02:02;30.40;;;7.33;;
5279;SDS011;2663;53.588;10.010;2023-05-24T06:04:29;38.13;;;7.63;;
5279;SDS011;2663;53.588;10.010;2023-05-24T06:06:56;39.17;;;7.77;;
5279;SDS011;2663;53.588;10.010;2023-05-24T06:09:23;43.47;;;7.70;;
5279;SDS011;2663;53.588;10.010;2023-05-24T06:11:49;47.83;;;9.20;;
5279;SDS011;2663;53.588;10.010;2023-05-24T06:14:16;40.43;;;8.20;;
5279;SDS011;2663;53.588;10.010;2023-05-24T06:16:45;34.77;;;7.80;;
5279;SDS011;2663;53.588;10.010;2023-05-24T06:19:13;44.50;;;8.50;;
5279;SDS011;2663;53.588;10.010;2023-05-24T06:21:40;58.40;;;9.30;;
5279;SDS011;2663;53.588;10.010;2023-05-24T06:24:12;44.93;;;8.43;;
5279;SDS011;2663;53.588;10.010;2023-05-24T06:26:40;37.30;;;8.17;;
5279;SDS011;2663;53.588;10.010;2023-05-24T06:29:07;37.20;;;8.80;;
5279;SDS011;2663;53.588;10.010;2023-05-24T06:31:34;41.40;;;9.70;;
5279;SDS011;2663;53.588;10.010;2023-05-24T06:34:01;35.17;;;7.50;;
5279;SDS011;2663;53.588;10.010;2023-05-24T06:36:30;46.03;;;8.07;;
5279;SDS011;2663;53.588;10.010;2023-05-24T06:39:08;53.03;;;8.30;;
5279;SDS011;2663;53.588;10.010;2023-05-24T06:41:35;54.00;;;8.80;;
5279;SDS011;2663;53.588;10.010;2023-05-24T06:44:04;61.03;;;10.20;;
5279;SDS011;2663;53.588;10.010;2023-05-24T06:46:30;29.47;;;6.80;;
5279;SDS011;2663;53.588;10.010;2023-05-24T06:48:58;45.03;;;7.70;;
5279;SDS011;2663;53.588;10.010;2023-05-24T06:51:24;40.47;;;7.30;;
5279;SDS011;2663;53.588;10.010;2023-05-24T06:53:51;36.70;;;8.30;;
5279;SDS011;2663;53.588;10.010;2023-05-24T06:56:18;54.90;;;8.50;;
5279;SDS011;2663;53.588;10.010;2023-05-24T06:58:45;42.60;;;9.83;;
5279;SDS011;2663;53.588;10.010;2023-05-24T07:01:12;38.90;;;8.73;;
5279;SDS011;2663;53.588;10.010;2023-05-24T07:03:39;40.50;;;8.37;;
5279;SDS011;2663;53.588;10.010;2023-05-24T07:06:06;62.50;;;8.57;;
5279;SDS011;2663;53.588;10.010;2023-05-24T07:08:35;36.90;;;7.53;;
5279;SDS011;2663;53.588;10.010;2023-05-24T07:11:01;48.53;;;7.50;;
5279;SDS011;2663;53.588;10.010;2023-05-24T07:13:28;40.77;;;9.43;;
5279;SDS011;2663;53.588;10.010;2023-05-24T07:15:55;40.97;;;7.57;;
5279;SDS011;2663;53.588;10.010;2023-05-24T07:18:22;46.80;;;8.03;;
5279;SDS011;2663;53.588;10.010;2023-05-24T07:20:48;36.87;;;8.07;;
5279;SDS011;2663;53.588;10.010;2023-05-24T07:23:15;44.93;;;8.30;;
5279;SDS011;2663;53.588;10.010;2023-05-24T07:25:42;46.03;;;7.63;;
5279;SDS011;2663;53.588;10.010;2023-05-24T07:28:09;25.80;;;7.00;;
5279;SDS011;2663;53.588;10.010;2023-05-24T07:30:36;27.97;;;6.90;;
5279;SDS011;2663;53.588;10.010;2023-05-24T07:33:04;39.03;;;6.93;;
5279;SDS011;2663;53.588;10.010;2023-05-24T07:35:31;49.77;;;7.10;;
5279;SDS011;2663;53.588;10.010;2023-05-24T07:37:57;40.30;;;7.53;;
5279;SDS011;2663;53.588;10.010;2023-05-24T07:40:24;33.53;;;8.00;;
5279;SDS011;2663;53.588;10.010;2023-05-24T07:42:51;61.73;;;8.60;;
5279;SDS011;2663;53.588;10.010;2023-05-24T07:45:18;56.47;;;7.83;;
5279;SDS011;2663;53.588;10.010;2023-05-24T07:47:45;35.63;;;7.27;;
5279;SDS011;2663;53.588;10.010;2023-05-24T07:50:12;47.40;;;8.20;;
5279;SDS011;2663;53.588;10.010;2023-05-24T07:52:39;33.77;;;6.90;;
5279;SDS011;2663;53.588;10.010;2023-05-24T07:55:05;47.33;;;9.43;;
5279;SDS011;2663;53.588;10.010;2023-05-24T07:57:32;58.27;;;7.73;;
5279;SDS011;2663;53.588;10.010;2023-05-24T07:59:59;38.17;;;8.53;;
5279;SDS011;2663;53.588;10.010;2023-05-24T08:02:32;47.73;;;9.17;;
5279;SDS011;2663;53.588;10.010;2023-05-24T08:05:00;41.83;;;9.33;;
5279;SDS011;2663;53.588;10.010;2023-05-24T08:07:26;52.33;;;9.40;;
5279;SDS011;2663;53.588;10.010;2023-05-24T08:09:54;34.33;;;8.13;;
5279;SDS011;2663;53.588;10.010;2023-05-24T08:12:20;32.03;;;7.70;;
5279;SDS011;2663;53.588;10.010;2023-05-24T08:14:47;45.07;;;7.83;;
5279;SDS011;2663;53.588;10.010;2023-05-24T08:17:14;31.80;;;7.60;;
5279;SDS011;2663;53.588;10.010;2023-05-24T08:19:40;43.20;;;7.40;;
5279;SDS011;2663;53.588;10.010;2023-05-24T08:22:07;39.80;;;7.70;;
5279;SDS011;2663;53.588;10.010;2023-05-24T08:24:34;48.13;;;8.27;;
5279;SDS011;2663;53.588;10.010;2023-05-24T08:27:01;46.90;;;8.80;;
5279;SDS011;2663;53.588;10.010;2023-05-24T08:29:29;49.10;;;8.20;;
5279;SDS011;2663;53.588;10.010;2023-05-24T08:31:56;39.63;;;7.03;;
5279;SDS011;2663;53.588;10.010;2023-05-24T08:34:23;39.77;;;8.03;;
5279;SDS011;2663;53.588;10.010;2023-05-24T08:36:50;47.00;;;8.03;;
5279;SDS011;2663;53.588;10.010;2023-05-24T08:39:17;48.63;;;7.90;;
5279;SDS011;2663;53.588;10.010;2023-05-24T08:41:45;33.20;;;7.00;;
5279;SDS011;2663;53.588;10.010;2023-05-24T08:44:34;27.13;;;5.80;;
5279;SDS011;2663;53.588;10.010;2023-05-24T08:47:09;43.43;;;7.73;;
5279;SDS011;2663;53.588;10.010;2023-05-24T08:49:36;27.17;;;6.70;;
5279;SDS011;2663;53.588;10.010;2023-05-24T08:52:04;25.17;;;6.20;;
5279;SDS011;2663;53.588;10.010;2023-05-24T08:54:35;34.30;;;5.70;;
5279;SDS011;2663;53.588;10.010;2023-05-24T08:57:03;30.90;;;5.90;;
5279;SDS011;2663;53.588;10.010;2023-05-24T08:59:32;24.20;;;6.47;;
5279;SDS011;2663;53.588;10.010;2023-05-24T09:01:58;48.57;;;7.77;;
5279;SDS011;2663;53.588;10.010;2023-05-24T09:04:26;27.13;;;6.40;;
5279;SDS011;2663;53.588;10.010;2023-05-24T09:06:54;23.07;;;7.50;;
5279;SDS011;2663;53.588;10.010;2023-05-24T09:09:22;21.70;;;5.90;;
5279;SDS011;2663;53.588;10.010;2023-05-24T09:11:55;33.27;;;5.67;;
5279;SDS011;2663;53.588;10.010;2023-05-24T09:14:24;22.17;;;5.90;;
5279;SDS011;2663;53.588;10.010;2023-05-24T09:16:50;27.50;;;6.20;;
5279;SDS011;2663;53.588;10.010;2023-05-24T09:19:18;21.13;;;5.40;;
5279;SDS011;2663;53.588;10.010;2023-05-24T09:21:45;28.50;;;5.40;;
5279;SDS011;2663;53.588;10.010;2023-05-24T09:24:14;19.03;;;4.63;;
5279;SDS011;2663;53.588;10.010;2023-05-24T09:26:41;19.17;;;4.90;;
5279;SDS011;2663;53.588;10.010;2023-05-24T09:29:08;33.50;;;6.57;;
5279;SDS011;2663;53.588;10.010;2023-05-24T09:31:38;22.53;;;4.77;;
5279;SDS011;2663;53.588;10.010;2023-05-24T09:34:08;25.43;;;6.03;;
5279;SDS011;2663;53.588;10.010;2023-05-24T09:36:39;26.50;;;5.20;;
5279;SDS011;2663;53.588;10.010;2023-05-24T09:39:08;23.87;;;4.50;;
5279;SDS011;2663;53.588;10.010;2023-05-24T09:41:35;18.67;;;4.10;;
5279;SDS011;2663;53.588;10.010;2023-05-24T09:44:03;23.40;;;5.23;;
5279;SDS011;2663;53.588;10.010;2023-05-24T09:46:36;23.93;;;4.80;;
5279;SDS011;2663;53.588;10.010;2023-05-24T09:49:03;16.80;;;4.20;;
5279;SDS011;2663;53.588;10.010;2023-05-24T09:51:35;16.67;;;5.27;;
5279;SDS011;2663;53.588;10.010;2023-05-24T09:54:04;30.10;;;8.00;;
5279;SDS011;2663;53.588;10.010;2023-05-24T09:56:34;15.97;;;5.33;;
5279;SDS011;2663;53.588;10.010;2023-05-24T09:59:04;24.63;;;4.20;;
5279;SDS011;2663;53.588;10.010;2023-05-24T10:01:33;22.93;;;5.70;;
5279;SDS011;2663;53.588;10.010;2023-05-24T10:04:01;23.43;;;5.63;;
5279;SDS011;2663;53.588;10.010;2023-05-24T10:06:32;17.37;;;4.87;;
5279;SDS011;2663;53.588;10.010;2023-05-24T10:09:02;30.40;;;5.47;;
5279;SDS011;2663;53.588;10.010;2023-05-24T10:11:37;16.20;;;4.47;;
5279;SDS011;2663;53.588;10.010;2023-05-24T10:14:04;25.63;;;6.50;;
5279;SDS011;2663;53.588;10.010;2023-05-24T10:16:34;30.67;;;5.17;;
5279;SDS011;2663;53.588;10.010;2023-05-24T10:19:03;18.67;;;5.27;;
5279;SDS011;2663;53.588;10.010;2023-05-24T10:21:31;21.47;;;5.00;;
5279;SDS011;2663;53.588;10.010;2023-05-24T10:24:01;24.23;;;4.73;;
5279;SDS011;2663;53.588;10.010;2023-05-24T10:26:34;22.33;;;5.20;;
5279;SDS011;2663;53.588;10.010;2023-05-24T10:29:05;21.87;;;5.17;;
5279;SDS011;2663;53.588;10.010;2023-05-24T10:31:36;31.90;;;5.30;;
5279;SDS011;2663;53.588;10.010;2023-05-24T10:34:05;20.30;;;4.77;;
5279;SDS011;2663;53.588;10.010;2023-05-24T10:36:34;18.83;;;5.37;;
5279;SDS011;2663;53.588;10.010;2023-05-24T10:39:02;18.03;;;5.40;;
5279;SDS011;2663;53.588;10.010;2023-05-24T10:41:29;24.87;;;5.47;;
5279;SDS011;2663;53.588;10.010;2023-05-24T10:44:09;16.33;;;4.47;;
5279;SDS011;2663;53.588;10.010;2023-05-24T10:49:48;14.77;;;4.27;;
5279;SDS011;2663;53.588;10.010;2023-05-24T10:52:17;19.83;;;4.87;;
5279;SDS011;2663;53.588;10.010;2023-05-24T10:55:04;21.80;;;5.07;;
5279;SDS011;2663;53.588;10.010;2023-05-24T10:57:33;27.37;;;5.50;;
5279;SDS011;2663;53.588;10.010;2023-05-24T11:02:50;19.20;;;5.00;;
5279;SDS011;2663;53.588;10.010;2023-05-24T11:05:35;18.90;;;4.73;;
5279;SDS011;2663;53.588;10.010;2023-05-24T11:08:31;18.33;;;4.37;;
5279;SDS011;2663;53.588;10.010;2023-05-24T11:11:01;21.40;;;4.20;;
5279;SDS011;2663;53.588;10.010;2023-05-24T11:13:38;15.37;;;4.37;;
5279;SDS011;2663;53.588;10.010;2023-05-24T11:16:06;17.23;;;3.93;;
5279;SDS011;2663;53.588;10.010;2023-05-24T11:18:33;10.13;;;4.00;;
5279;SDS011;2663;53.588;10.010;2023-05-24T11:21:04;22.53;;;4.00;;
5279;SDS011;2663;53.588;10.010;2023-05-24T11:23:31;19.70;;;3.97;;
5279;SDS011;2663;53.588;10.010;2023-05-24T11:26:02;20.20;;;4.40;;
5279;SDS011;2663;53.588;10.010;2023-05-24T11:28:29;18.23;;;3.63;;
5279;SDS011;2663;53.588;10.010;2023-05-24T11:30:57;17.20;;;4.90;;
5279;SDS011;2663;53.588;10.010;2023-05-24T11:33:33;14.70;;;3.90;;
5279;SDS011;2663;53.588;10.010;2023-05-24T11:36:00;10.80;;;4.30;;
5279;SDS011;2663;53.588;10.010;2023-05-24T11:38:27;14.43;;;3.83;;
5279;SDS011;2663;53.588;10.010;2023-05-24T11:40:54;13.57;;;4.17;;
5279;SDS011;2663;53.588;10.010;2023-05-24T11:43:23;20.00;;;4.60;;
5279;SDS011;2663;53.588;10.010;2023-05-24T11:45:50;17.10;;;3.97;;
5279;SDS011;2663;53.588;10.010;2023-05-24T11:48:18;21.33;;;5.00;;
5279;SDS011;2663;53.588;10.010;2023-05-24T11:50:45;15.87;;;3.97;;
5279;SDS011;2663;53.588;10.010;2023-05-24T11:53:17;19.87;;;4.03;;
5279;SDS011;2663;53.588;10.010;2023-05-24T11:55:45;12.67;;;3.03;;
5279;SDS011;2663;53.588;10.010;2023-05-24T11:58:23;19.37;;;4.10;;
5279;SDS011;2663;53.588;10.010;2023-05-24T12:00:54;24.10;;;6.00;;
5279;SDS011;2663;53.588;10.010;2023-05-24T12:03:21;15.53;;;4.87;;
5279;SDS011;2663;53.588;10.010;2023-05-24T12:05:48;12.03;;;3.90;;
5279;SDS011;2663;53.588;10.010;2023-05-24T12:08:15;18.40;;;4.10;;
5279;SDS011;2663;53.588;10.010;2023-05-24T12:10:42;16.10;;;4.17;;
5279;SDS011;2663;53.588;10.010;2023-05-24T12:13:19;12.03;;;5.13;;
5279;SDS011;2663;53.588;10.010;2023-05-24T12:15:50;13.23;;;4.87;;
5279;SDS011;2663;53.588;10.010;2023-05-24T12:18:22;12.10;;;4.30;;
5279;SDS011;2663;53.588;10.010;2023-05-24T12:20:53;16.30;;;3.93;;
5279;SDS011;2663;53.588;10.010;2023-05-24T12:23:24;17.03;;;3.93;;
5279;SDS011;2663;53.588;10.010;2023-05-24T12:25:57;21.83;;;4.83;;
5279;SDS011;2663;53.588;10.010;2023-05-24T12:28:33;17.63;;;4.60;;
5279;SDS011;2663;53.588;10.010;2023-05-24T12:31:02;13.27;;;4.13;;
5279;SDS011;2663;53.588;10.010;2023-05-24T12:33:30;18.60;;;5.10;;
5279;SDS011;2663;53.588;10.010;2023-05-24T12:35:57;24.10;;;5.27;;
5279;SDS011;2663;53.588;10.010;2023-05-24T12:38:24;18.93;;;3.97;;
5279;SDS011;2663;53.588;10.010;2023-05-24T12:40:51;22.80;;;4.80;;
5279;SDS011;2663;53.588;10.010;2023-05-24T12:43:38;22.43;;;4.70;;
5279;SDS011;2663;53.588;10.010;2023-05-24T12:46:05;15.30;;;3.93;;
5279;SDS011;2663;53.588;10.010;2023-05-24T12:48:32;20.40;;;4.53;;
5279;SDS011;2663;53.588;10.010;2023-05-24T12:50:59;23.43;;;4.10;;
5279;SDS011;2663;53.588;10.010;2023-05-24T12:53:27;11.87;;;4.73;;
5279;SDS011;2663;53.588;10.010;2023-05-24T12:55:54;21.23;;;5.30;;
5279;SDS011;2663;53.588;10.010;2023-05-24T12:58:21;21.47;;;4.23;;
5279;SDS011;2663;53.588;10.010;2023-05-24T13:00:48;15.60;;;5.57;;
5279;SDS011;2663;53.588;10.010;2023-05-24T13:03:16;15.60;;;4.90;;
5279;SDS011;2663;53.588;10.010;2023-05-24T13:05:43;18.73;;;4.90;;
5279;SDS011;2663;53.588;10.010;2023-05-24T13:08:11;10.60;;;3.70;;
5279;SDS011;2663;53.588;10.010;2023-05-24T13:10:38;21.90;;;5.33;;
5279;SDS011;2663;53.588;10.010;2023-05-24T13:13:06;16.10;;;4.73;;
5279;SDS011;2663;53.588;10.010;2023-05-24T13:15:32;17.87;;;5.60;;
5279;SDS011;2663;53.588;10.010;2023-05-24T13:17:59;15.90;;;5.00;;
5279;SDS011;2663;53.588;10.010;2023-05-24T13:20:26;18.97;;;5.87;;
5279;SDS011;2663;53.588;10.010;2023-05-24T13:22:53;19.07;;;5.67;;
5279;SDS011;2663;53.588;10.010;2023-05-24T13:25:20;19.30;;;5.63;;
5279;SDS011;2663;53.588;10.010;2023-05-24T13:27:47;21.13;;;5.63;;
5279;SDS011;2663;53.588;10.010;2023-05-24T13:30:14;22.17;;;5.20;;
5279;SDS011;2663;53.588;10.010;2023-05-24T13:32:42;32.27;;;10.57;;
5279;SDS011;2663;53.588;10.010;2023-05-24T13:35:09;18.20;;;5.53;;
5279;SDS011;2663;53.588;10.010;2023-05-24T13:37:36;16.20;;;5.70;;
5279;SDS011;2663;53.588;10.010;2023-05-24T13:40:03;33.00;;;6.87;;
5279;SDS011;2663;53.588;10.010;2023-05-24T13:42:31;7.60;;;3.87;;
5279;SDS011;2663;53.588;10.010;2023-05-24T13:44:58;20.57;;;5.00;;
5279;SDS011;2663;53.588;10.010;2023-05-24T13:47:25;21.30;;;4.60;;
5279;SDS011;2663;53.588;10.010;2023-05-24T13:50:05;15.70;;;4.50;;
5279;SDS011;2663;53.588;10.010;2023-05-24T13:52:32;21.70;;;4.70;;
5279;SDS011;2663;53.588;10.010;2023-05-24T13:55:01;22.27;;;4.53;;
5279;SDS011;2663;53.588;10.010;2023-05-24T13:57:29;21.83;;;4.67;;
5279;SDS011;2663;53.588;10.010;2023-05-24T14:00:16;11.10;;;4.43;;
5279;SDS011;2663;53.588;10.010;2023-05-24T14:02:43;10.30;;;4.60;;
5279;SDS011;2663;53.588;10.010;2023-05-24T14:05:10;12.90;;;5.37;;
5279;SDS011;2663;53.588;10.010;2023-05-24T14:07:52;20.33;;;5.00;;
5279;SDS011;2663;53.588;10.010;2023-05-24T14:10:19;12.30;;;5.17;;
5279;SDS011;2663;53.588;10.010;2023-05-24T14:12:47;8.57;;;3.57;;
5279;SDS011;2663;53.588;10.010;2023-05-24T14:15:34;19.23;;;5.50;;
5279;SDS011;2663;53.588;10.010;2023-05-24T14:18:00;18.33;;;5.80;;
5279;SDS011;2663;53.588;10.010;2023-05-24T14:20:33;19.13;;;5.27;;
5279;SDS011;2663;53.588;10.010;2023-05-24T14:23:03;24.33;;;5.43;;
5279;SDS011;2663;53.588;10.010;2023-05-24T14:25:30;18.53;;;5.90;;
5279;SDS011;2663;53.588;10.010;2023-05-24T14:27:57;20.10;;;5.70;;
5279;SDS011;2663;53.588;10.010;2023-05-24T14:30:25;22.07;;;7.17;;
5279;SDS011;2663;53.588;10.010;2023-05-24T14:32:52;31.33;;;6.40;;
5279;SDS011;2663;53.588;10.010;2023-05-24T14:35:18;18.47;;;6.13;;
5279;SDS011;2663;53.588;10.010;2023-05-24T14:37:45;17.10;;;5.90;;
5279;SDS011;2663;53.588;10.010;2023-05-24T14:40:12;25.20;;;5.40;;
5279;SDS011;2663;53.588;10.010;2023-05-24T14:42:42;20.67;;;5.90;;
5279;SDS011;2663;53.588;10.010;2023-05-24T14:45:09;37.77;;;7.90;;
5279;SDS011;2663;53.588;10.010;2023-05-24T14:47:36;23.60;;;6.50;;
5279;SDS011;2663;53.588;10.010;2023-05-24T14:50:03;18.07;;;5.80;;
5279;SDS011;2663;53.588;10.010;2023-05-24T14:52:31;24.13;;;6.20;;
5279;SDS011;2663;53.588;10.010;2023-05-24T14:54:57;20.87;;;6.43;;
5279;SDS011;2663;53.588;10.010;2023-05-24T14:57:24;19.50;;;5.37;;
5279;SDS011;2663;53.588;10.010;2023-05-24T14:59:51;30.90;;;8.40;;
5279;SDS011;2663;53.588;10.010;2023-05-24T15:02:18;18.70;;;5.87;;
5279;SDS011;2663;53.588;10.010;2023-05-24T15:04:45;30.77;;;8.23;;
5279;SDS011;2663;53.588;10.010;2023-05-24T15:07:12;22.10;;;6.40;;
5279;SDS011;2663;53.588;10.010;2023-05-24T15:09:39;19.37;;;5.63;;
5279;SDS011;2663;53.588;10.010;2023-05-24T15:12:06;22.97;;;6.37;;